createdAt,value
2023-02-02T05:10:15.726Z,1.56
2023-02-02T05:13:19.523Z,1.46
2023-02-02T05:16:23.842Z,1.43
2023-02-02T05:19:26.700Z,1.45
2023-02-02T05:22:29.411Z,1.45
2023-02-02T05:25:32.345Z,1.37
2023-02-02T05:28:35.770Z,1.38
2023-02-02T05:31:38.674Z,1.44
2023-02-02T05:34:41.305Z,1.61
2023-02-02T05:37:44.215Z,1.51
2023-02-02T05:40:49.144Z,1.39
2023-02-02T05:43:52.187Z,1.45
2023-02-02T05:46:54.720Z,1.43
2023-02-02T05:49:57.752Z,1.42
2023-02-02T05:53:00.612Z,1.34
2023-02-02T05:56:03.905Z,1.26
2023-02-02T05:59:07.553Z,1.07
2023-02-02T06:02:10.448Z,1.13
2023-02-02T06:05:13.314Z,1.26
2023-02-02T06:08:16.290Z,1.33
2023-02-02T06:11:19.589Z,1.27
2023-02-02T06:14:22.263Z,1.26
2023-02-02T06:17:25.133Z,1.30
2023-02-02T06:20:28.729Z,1.27
2023-02-02T06:23:33.537Z,1.34
2023-02-02T06:26:36.660Z,1.36
2023-02-02T06:29:39.747Z,1.28
2023-02-02T06:32:42.440Z,1.26
2023-02-02T06:35:45.342Z,1.24
2023-02-02T06:38:56.675Z,1.31
2023-02-02T06:42:03.873Z,1.32
2023-02-02T06:45:11.733Z,1.42
2023-02-02T06:48:14.578Z,1.45
2023-02-02T06:51:17.337Z,1.43
2023-02-02T06:54:20.194Z,1.55
2023-02-02T06:57:22.852Z,1.52
2023-02-02T07:00:27.267Z,1.59
2023-02-02T07:03:30.059Z,1.72
2023-02-02T07:06:33.300Z,1.73
2023-02-02T07:13:27.870Z,1.88
2023-02-02T07:16:31.097Z,1.91
2023-02-02T07:19:33.767Z,1.90
2023-02-02T07:22:41.287Z,1.88
2023-02-02T07:25:44.095Z,1.93
2023-02-02T07:28:47.649Z,1.97
2023-02-02T07:31:50.551Z,2.02
2023-02-02T07:34:53.460Z,2.05
2023-02-02T07:37:56.295Z,2.11
2023-02-02T07:41:02.613Z,2.18
2023-02-02T07:44:06.162Z,2.45
2023-02-02T07:47:10.143Z,2.50
2023-02-02T07:50:12.646Z,2.68
2023-02-02T07:53:15.621Z,2.74
2023-02-02T07:56:20.961Z,3.14
2023-02-02T07:59:24.078Z,3.20
2023-02-02T08:02:26.679Z,3.46
2023-02-02T08:05:29.624Z,3.66
2023-02-02T08:08:32.236Z,3.62
2023-02-02T08:11:36.570Z,3.66
2023-02-02T08:14:39.053Z,4.85
2023-02-02T08:17:46.743Z,5.83
2023-02-02T08:20:49.669Z,4.95
2023-02-02T08:23:53.406Z,4.57
2023-02-02T08:26:56.362Z,4.28
2023-02-02T08:29:59.282Z,4.32
2023-02-02T08:33:01.889Z,4.49
2023-02-02T08:36:05.717Z,4.67
2023-02-02T08:39:12.441Z,4.79
2023-02-02T08:42:15.610Z,4.81
2023-02-02T08:46:04.040Z,4.91
2023-02-02T08:52:41.928Z,4.80
2023-02-02T08:55:44.913Z,4.88
2023-02-02T08:58:51.117Z,4.92
2023-02-02T09:01:54.492Z,5.33
2023-02-02T09:04:57.255Z,5.58
2023-02-02T09:08:00.157Z,5.40
2023-02-02T09:11:08.065Z,5.66
2023-02-02T09:14:13.995Z,5.80
2023-02-02T09:17:16.640Z,6.28
2023-02-02T09:20:20.604Z,6.18
2023-02-02T09:23:23.354Z,6.04
2023-02-02T09:26:28.646Z,5.97
2023-02-02T09:29:31.649Z,6.10
2023-02-02T09:32:34.649Z,6.20
2023-02-02T09:35:37.194Z,6.46
2023-02-02T09:38:41.072Z,6.47
2023-02-02T09:42:29.349Z,6.07
2023-02-02T09:45:45.384Z,6.55
2023-02-02T09:49:15.192Z,6.70
2023-02-02T09:52:41.359Z,6.30
2023-02-02T09:55:48.023Z,6.97
2023-02-02T09:58:54.747Z,7.06
2023-02-02T10:02:03.254Z,7.73
2023-02-02T10:05:20.849Z,7.39
2023-02-02T10:08:52.367Z,7.12
2023-02-02T10:12:17.170Z,6.97
2023-02-02T10:15:41.655Z,6.25
2023-02-02T10:19:14.724Z,6.28
2023-02-02T10:22:27.593Z,7.29
2023-02-02T10:25:31.771Z,7.77
2023-02-02T10:28:54.520Z,7.37
2023-02-02T10:32:23.105Z,6.90
2023-02-02T10:36:18.894Z,6.59
2023-02-02T10:39:42.620Z,7.46
2023-02-02T10:43:11.925Z,7.76
2023-02-02T10:46:45.716Z,7.06
2023-02-02T10:50:07.458Z,7.50
2023-02-02T10:53:15.194Z,7.49
2023-02-02T10:56:27.015Z,7.46
2023-02-02T10:59:44.382Z,7.74
2023-02-02T11:02:48.332Z,8.26
2023-02-02T11:06:11.075Z,7.44
2023-02-02T11:09:14.838Z,7.17
2023-02-02T11:12:35.797Z,7.04
2023-02-02T11:15:42.206Z,7.57
2023-02-02T11:18:46.746Z,7.12
2023-02-02T11:21:59.431Z,8.30
2023-02-02T11:25:34.890Z,9.26
2023-02-02T11:28:37.507Z,8.73
2023-02-02T11:31:40.545Z,8.62
2023-02-02T11:34:43.096Z,8.08
2023-02-02T11:37:55.771Z,7.43
2023-02-02T11:41:11.055Z,8.17
2023-02-02T11:44:27.184Z,8.47
2023-02-02T11:47:32.709Z,7.75
2023-02-02T11:50:36.324Z,7.14
2023-02-02T11:53:49.061Z,6.71
2023-02-02T11:56:54.436Z,6.36
2023-02-02T12:00:08.933Z,6.61
2023-02-02T12:03:43.568Z,6.34
2023-02-02T12:06:46.412Z,6.22
2023-02-02T12:09:50.488Z,6.00
2023-02-02T12:13:31.644Z,5.96
2023-02-02T12:16:46.500Z,6.05
2023-02-02T12:20:12.666Z,5.96
2023-02-02T12:23:33.231Z,5.84
2023-02-02T12:26:39.177Z,5.98
2023-02-02T12:30:11.548Z,5.84
2023-02-02T12:33:58.711Z,5.69
2023-02-02T12:37:48.932Z,5.66
2023-02-02T12:41:03.710Z,5.44
2023-02-02T12:44:24.911Z,5.42
2023-02-02T12:47:33.244Z,5.36
2023-02-02T12:50:54.523Z,5.37
2023-02-02T12:54:35.226Z,5.30
2023-02-02T12:57:32.222Z,5.14
2023-02-02T13:00:56.403Z,5.15
2023-02-02T13:07:56.061Z,5.24
2023-02-02T13:11:08.293Z,5.40
2023-02-02T13:14:20.100Z,5.25
2023-02-02T13:17:41.339Z,5.32
2023-02-02T13:21:08.782Z,5.23
2023-02-02T13:24:27.827Z,5.15
2023-02-02T13:27:31.570Z,5.25
2023-02-02T13:30:38.474Z,5.22
2023-02-02T13:33:44.729Z,5.13
2023-02-02T13:36:54.298Z,5.14
2023-02-02T13:40:00.972Z,5.08
2023-02-02T13:43:22.554Z,5.17
2023-02-02T13:46:27.890Z,5.18
2023-02-02T13:49:40.148Z,5.34
2023-02-02T13:52:49.246Z,5.21
2023-02-02T13:56:01.600Z,5.27
2023-02-02T13:59:14.281Z,5.39
2023-02-02T14:02:41.709Z,5.45
2023-02-02T14:06:01.125Z,5.73
2023-02-02T14:09:06.302Z,5.54
2023-02-02T14:12:11.725Z,5.68
2023-02-02T14:15:14.352Z,5.53
2023-02-02T14:18:51.787Z,5.39
2023-02-02T14:22:09.447Z,5.46
2023-02-02T14:25:33.548Z,5.21
2023-02-02T14:28:59.761Z,5.07
2023-02-02T14:32:24.275Z,5.05
2023-02-02T14:35:27.108Z,5.20
2023-02-02T14:38:52.838Z,5.12
2023-02-02T14:42:27.447Z,5.22
2023-02-02T14:45:41.345Z,4.93
2023-02-02T14:48:43.837Z,4.94
2023-02-02T14:51:53.286Z,4.97
2023-02-02T14:54:56.155Z,4.97
2023-02-02T14:58:02.326Z,4.91
2023-02-02T15:01:08.522Z,4.93
2023-02-02T15:04:21.379Z,5.02
2023-02-02T15:07:23.905Z,4.99
2023-02-02T15:10:45.442Z,4.85
2023-02-02T15:13:53.015Z,4.86
2023-02-02T15:16:56.681Z,4.88
2023-02-02T15:20:02.159Z,4.86
2023-02-02T15:23:23.665Z,5.03
2023-02-02T15:26:33.072Z,4.81
2023-02-02T15:29:42.937Z,4.66
2023-02-02T15:32:46.978Z,4.67
2023-02-02T15:35:52.490Z,4.61
2023-02-02T15:38:59.299Z,4.55
2023-02-02T15:42:26.601Z,4.74
2023-02-02T15:45:43.727Z,4.61
2023-02-02T15:48:49.174Z,4.74
2023-02-02T15:51:55.062Z,4.66
2023-02-02T15:55:00.084Z,4.66
2023-02-02T15:58:03.677Z,4.54
2023-02-02T16:01:15.725Z,4.55
2023-02-02T16:04:26.613Z,4.38
2023-02-02T16:07:32.130Z,4.22
2023-02-02T16:10:35.617Z,4.21
2023-02-02T16:13:40.272Z,4.23
2023-02-02T16:16:46.826Z,4.10
2023-02-02T16:19:56.720Z,3.93
